createdAt,value
2019-02-24T00:01:56.781Z,30.85
2019-02-24T00:04:25.828Z,30.38
2019-02-24T00:06:57.291Z,30.38
2019-02-24T00:09:26.561Z,30.34
2019-02-24T00:11:55.733Z,30.34
2019-02-24T00:14:24.912Z,30.08
2019-02-24T00:16:54.053Z,29.37
2019-02-24T00:19:24.892Z,29.37
2019-02-24T00:21:54.326Z,29.35
2019-02-24T00:24:23.449Z,29.55
2019-02-24T00:26:52.541Z,29.55
2019-02-24T00:29:21.779Z,29.17
2019-02-24T00:31:51.078Z,29.51
2019-02-24T00:34:20.171Z,29.51
2019-02-24T00:36:49.644Z,29.75
2019-02-24T00:39:18.815Z,29.64
2019-02-24T00:41:47.895Z,29.66
2019-02-24T00:44:17.091Z,29.89
2019-02-24T00:46:46.413Z,29.89
2019-02-24T00:49:15.693Z,29.52
2019-02-24T00:51:44.805Z,30.24
2019-02-24T00:54:13.987Z,30.24
2019-02-24T00:56:43.504Z,30.59
2019-02-24T00:59:12.632Z,30.59
2019-02-24T01:01:41.704Z,31.08
2019-02-24T01:04:11.033Z,31.34
2019-02-24T01:06:40.227Z,31.17
2019-02-24T01:09:09.343Z,31.53
2019-02-24T01:11:38.468Z,31.53
2019-02-24T01:14:07.898Z,31.71
2019-02-24T01:16:37.430Z,31.84
2019-02-24T01:19:06.521Z,32.17
2019-02-24T01:21:35.783Z,32.31
2019-02-24T01:24:04.887Z,32.59
2019-02-24T01:26:34.047Z,32.46
2019-02-24T01:29:03.201Z,32.24
2019-02-24T01:31:32.288Z,32.07
2019-02-24T01:34:01.610Z,32.20
2019-02-24T01:36:30.732Z,32.20
2019-02-24T01:38:59.825Z,32.15
2019-02-24T01:41:29.232Z,32.29
2019-02-24T01:43:58.324Z,32.12
2019-02-24T01:46:27.655Z,32.36
2019-02-24T01:48:56.987Z,32.22
2019-02-24T01:51:27.907Z,31.59
2019-02-24T01:53:57.254Z,31.82
2019-02-24T01:56:26.451Z,32.02
2019-02-24T01:58:55.801Z,32.02
2019-02-24T02:01:25.117Z,32.16
2019-02-24T02:03:54.205Z,32.50
2019-02-24T02:06:23.376Z,33.21
2019-02-24T02:08:53.363Z,33.84
2019-02-24T02:11:22.892Z,34.34
2019-02-24T02:13:52.039Z,34.34
2019-02-24T02:16:21.296Z,35.11
2019-02-24T02:18:50.552Z,35.13
2019-02-24T02:21:19.662Z,36.59
2019-02-24T02:23:48.893Z,36.92
2019-02-24T02:26:18.041Z,36.92
2019-02-24T02:28:47.366Z,37.21
2019-02-24T02:31:16.848Z,37.70
2019-02-24T02:33:45.872Z,38.25
2019-02-24T02:36:14.976Z,39.77
2019-02-24T02:38:45.237Z,39.77
2019-02-24T02:41:14.794Z,40.65
2019-02-24T02:43:56.766Z,41.50
2019-02-24T02:46:27.077Z,42.62
2019-02-24T02:48:56.736Z,43.35
2019-02-24T02:52:00.901Z,44.26
2019-02-24T02:54:30.267Z,45.32
2019-02-24T02:56:59.523Z,46.18
2019-02-24T02:59:30.123Z,46.23
2019-02-24T03:01:59.948Z,46.20
2019-02-24T03:04:55.802Z,46.20
2019-02-24T03:08:05.539Z,46.23
2019-02-24T03:10:34.988Z,46.12
2019-02-24T03:13:04.226Z,46.60
2019-02-24T03:15:33.589Z,46.78
2019-02-24T03:18:03.253Z,47.12
2019-02-24T03:20:32.583Z,47.42
2019-02-24T03:23:01.939Z,47.24
2019-02-24T03:25:31.292Z,47.63
2019-02-24T03:28:01.027Z,47.94
2019-02-24T03:30:30.791Z,47.75
2019-02-24T03:33:18.774Z,48.37
2019-02-24T03:35:50.360Z,48.20
2019-02-24T03:38:37.880Z,48.03
2019-02-24T03:41:09.140Z,48.05
2019-02-24T03:43:38.565Z,48.45
2019-02-24T03:46:08.182Z,48.44
2019-02-24T03:48:37.885Z,49.29
2019-02-24T03:51:07.331Z,49.07
2019-02-24T03:53:36.606Z,49.12
2019-02-24T03:56:05.731Z,49.30
2019-02-24T03:58:35.191Z,49.39
2019-02-24T04:01:04.651Z,49.15
2019-02-24T04:03:35.338Z,48.98
2019-02-24T04:06:05.186Z,48.97
2019-02-24T04:08:35.472Z,49.11
2019-02-24T04:11:05.367Z,49.29
2019-02-24T04:13:34.649Z,49.44
2019-02-24T04:16:03.897Z,49.16
2019-02-24T04:18:33.947Z,48.75
2019-02-24T04:21:03.267Z,49.32
2019-02-24T04:23:33.134Z,49.32
2019-02-24T04:26:03.559Z,48.97
2019-02-24T04:28:34.085Z,48.82
2019-02-24T04:31:03.989Z,48.58
2019-02-24T04:33:33.786Z,48.52
2019-02-24T04:36:02.925Z,49.25
2019-02-24T04:38:32.343Z,49.17
2019-02-24T04:41:01.438Z,49.11
2019-02-24T04:43:30.671Z,49.39
2019-02-24T04:45:59.901Z,49.35
2019-02-24T04:48:29.126Z,49.35
2019-02-24T04:50:58.392Z,49.25
2019-02-24T04:53:27.514Z,49.08
2019-02-24T04:55:56.647Z,48.73
2019-02-24T04:58:26.038Z,48.47
2019-02-24T05:00:55.120Z,48.23
2019-02-24T05:03:24.482Z,48.26
2019-02-24T05:05:53.738Z,48.02
2019-02-24T05:08:22.856Z,48.11
2019-02-24T05:10:52.313Z,48.01
2019-02-24T05:13:21.481Z,48.90
2019-02-24T05:15:50.576Z,49.59
2019-02-24T05:18:19.984Z,49.83
2019-02-24T05:20:49.085Z,50.53
2019-02-24T05:23:18.373Z,50.68
2019-02-24T05:25:47.482Z,50.26
2019-02-24T05:28:16.683Z,49.61
2019-02-24T05:30:45.878Z,49.84
2019-02-24T05:33:15.282Z,49.98
2019-02-24T05:35:44.323Z,50.14
2019-02-24T05:38:13.835Z,50.11
2019-02-24T05:40:42.889Z,49.95
2019-02-24T05:43:12.027Z,49.83
2019-02-24T05:45:41.165Z,50.11
2019-02-24T05:48:10.451Z,50.09
2019-02-24T05:50:39.674Z,49.65
2019-02-24T05:53:08.927Z,49.86
2019-02-24T05:55:38.073Z,49.68
2019-02-24T05:58:07.456Z,49.56
2019-02-24T06:00:38.402Z,49.45
2019-02-24T06:03:07.583Z,49.51
2019-02-24T06:05:36.914Z,49.15
2019-02-24T06:08:06.391Z,49.42
2019-02-24T06:10:35.490Z,49.40
2019-02-24T06:13:04.578Z,49.06
2019-02-24T06:15:33.861Z,48.65
2019-02-24T06:18:03.164Z,48.14
2019-02-24T06:20:32.292Z,48.04
2019-02-24T06:23:01.419Z,48.22
2019-02-24T06:25:30.910Z,48.06
2019-02-24T06:27:59.979Z,48.81
2019-02-24T06:30:29.201Z,48.60
2019-02-24T06:32:58.392Z,48.70
2019-02-24T06:35:27.556Z,49.29
2019-02-24T06:37:56.823Z,49.15
2019-02-24T06:40:25.895Z,47.82
2019-02-24T06:42:55.184Z,47.14
2019-02-24T06:45:24.542Z,46.00
2019-02-24T06:47:53.775Z,44.84
2019-02-24T06:50:22.999Z,43.45
2019-02-24T06:52:52.146Z,43.45
2019-02-24T06:55:21.314Z,43.22
2019-02-24T06:57:50.800Z,43.00
2019-02-24T07:00:19.895Z,43.06
2019-02-24T07:02:49.046Z,42.78
2019-02-24T07:05:18.267Z,43.12
2019-02-24T07:07:47.381Z,43.24
2019-02-24T07:10:16.897Z,43.55
2019-02-24T07:12:46.054Z,43.55
2019-02-24T07:15:15.353Z,43.53
2019-02-24T07:17:44.419Z,43.34
2019-02-24T07:20:13.564Z,43.04
2019-02-24T07:22:42.819Z,43.05
2019-02-24T07:25:11.967Z,42.45
2019-02-24T07:27:41.405Z,42.45
2019-02-24T07:30:10.572Z,42.62
2019-02-24T07:32:39.627Z,42.82
2019-02-24T07:35:09.034Z,42.89
2019-02-24T07:37:38.335Z,43.10
2019-02-24T07:40:07.449Z,43.27
2019-02-24T07:42:36.546Z,43.34
2019-02-24T07:45:06.059Z,42.89
2019-02-24T07:47:35.327Z,43.13
2019-02-24T07:50:04.626Z,42.46
2019-02-24T07:52:33.973Z,41.47
2019-02-24T07:55:03.186Z,41.62
2019-02-24T07:57:32.435Z,41.11
2019-02-24T08:00:01.503Z,40.84
2019-02-24T08:02:30.778Z,40.21
2019-02-24T08:04:59.881Z,39.87
2019-02-24T08:07:30.918Z,39.02
2019-02-24T08:10:00.017Z,39.02
2019-02-24T08:12:29.554Z,38.50
2019-02-24T08:14:58.679Z,37.95
2019-02-24T08:17:27.777Z,37.79
2019-02-24T08:19:56.923Z,37.74
2019-02-24T08:22:27.861Z,37.37
2019-02-24T08:24:57.247Z,37.23
2019-02-24T08:27:26.480Z,35.63
2019-02-24T08:29:55.665Z,35.63
2019-02-24T08:32:24.859Z,35.15
2019-02-24T08:34:54.119Z,34.57
2019-02-24T08:37:23.331Z,34.57
2019-02-24T08:39:52.751Z,34.36
2019-02-24T08:42:21.933Z,33.91
2019-02-24T08:44:51.107Z,34.04
2019-02-24T08:47:20.318Z,33.89
2019-02-24T08:49:49.431Z,33.54
2019-02-24T08:52:18.895Z,33.54
2019-02-24T08:54:48.287Z,32.82
2019-02-24T08:57:17.339Z,32.79
2019-02-24T08:59:46.499Z,32.84
2019-02-24T09:02:15.563Z,32.12
2019-02-24T09:04:44.818Z,31.52
2019-02-24T09:07:14.081Z,31.45
2019-02-24T09:09:43.322Z,30.28
2019-02-24T09:12:12.497Z,30.12
2019-02-24T09:14:41.759Z,29.65
2019-02-24T09:17:11.046Z,29.30
2019-02-24T09:19:40.422Z,28.84
2019-02-24T09:22:09.762Z,28.42
2019-02-24T09:24:38.877Z,28.34
2019-02-24T09:27:08.115Z,28.50
2019-02-24T09:29:37.215Z,28.20
2019-02-24T09:32:06.521Z,28.35
2019-02-24T09:34:35.584Z,27.84
2019-02-24T09:37:04.769Z,27.87
2019-02-24T09:39:33.964Z,28.04
2019-02-24T09:42:03.587Z,27.63
2019-02-24T09:44:32.707Z,27.85
2019-02-24T09:47:01.870Z,27.42
2019-02-24T09:49:31.107Z,27.86
2019-02-24T09:52:00.241Z,27.76
2019-02-24T09:54:29.385Z,27.64
2019-02-24T09:56:58.623Z,27.04
2019-02-24T09:59:27.852Z,26.52
2019-02-24T10:01:56.959Z,26.50
2019-02-24T10:04:26.289Z,26.23
2019-02-24T10:06:55.534Z,26.35
2019-02-24T10:09:24.642Z,26.37
2019-02-24T10:11:53.841Z,25.84
2019-02-24T10:14:23.105Z,25.69
2019-02-24T10:16:52.279Z,25.43
2019-02-24T10:19:21.542Z,24.63
2019-02-24T10:21:52.691Z,24.62
2019-02-24T10:24:21.871Z,24.35
2019-02-24T10:26:51.136Z,24.74
2019-02-24T10:29:20.517Z,24.51
2019-02-24T10:31:49.587Z,24.18
2019-02-24T10:34:18.797Z,24.22
2019-02-24T10:36:48.019Z,23.62
2019-02-24T10:39:17.168Z,23.57
2019-02-24T10:41:46.663Z,23.35
2019-02-24T10:44:17.847Z,23.52
2019-02-24T10:46:47.022Z,22.73
2019-02-24T10:49:16.210Z,22.16
2019-02-24T10:51:45.383Z,22.27
2019-02-24T10:54:14.795Z,22.22
2019-02-24T10:56:43.986Z,21.46
2019-02-24T10:59:13.147Z,22.96
2019-02-24T11:01:42.330Z,23.82
2019-02-24T11:04:11.665Z,23.30
2019-02-24T11:06:40.852Z,24.04
2019-02-24T11:09:09.998Z,23.18
2019-02-24T11:11:39.108Z,23.34
2019-02-24T11:14:08.210Z,23.39
2019-02-24T11:16:37.424Z,23.57
2019-02-24T11:19:06.622Z,24.26
2019-02-24T11:21:35.898Z,23.63
2019-02-24T11:24:05.404Z,23.59
2019-02-24T11:26:34.532Z,23.82
2019-02-24T11:29:03.709Z,23.43
2019-02-24T11:31:38.363Z,23.11
2019-02-24T11:34:04.114Z,23.38
2019-02-24T11:36:33.250Z,22.93
2019-02-24T11:39:02.526Z,22.89
2019-02-24T11:41:31.797Z,22.63
2019-02-24T11:44:01.372Z,22.63
2019-02-24T11:46:30.526Z,22.71
2019-02-24T11:48:59.676Z,22.04
2019-02-24T11:51:28.823Z,22.21
2019-02-24T11:53:58.203Z,22.48
2019-02-24T11:56:27.271Z,22.46
2019-02-24T11:58:57.150Z,22.37
2019-02-24T12:01:26.482Z,21.98
2019-02-24T12:03:55.790Z,22.00
2019-02-24T12:06:26.567Z,22.56
2019-02-24T12:09:05.035Z,22.77
2019-02-24T12:11:28.318Z,23.04
2019-02-24T12:13:57.446Z,23.63
2019-02-24T12:16:26.626Z,23.18
2019-02-24T12:18:56.008Z,23.39
2019-02-24T12:21:25.149Z,23.91
2019-02-24T12:23:54.523Z,23.56
2019-02-24T12:26:24.517Z,23.59
2019-02-24T12:28:53.876Z,23.38
2019-02-24T12:31:22.999Z,23.20
2019-02-24T12:33:52.125Z,23.36
2019-02-24T12:36:21.409Z,23.29
2019-02-24T12:38:50.933Z,23.70
2019-02-24T12:41:20.295Z,23.28
2019-02-24T12:43:50.052Z,23.17
2019-02-24T12:46:19.443Z,23.58
2019-02-24T12:48:48.607Z,23.27
2019-02-24T12:51:17.842Z,23.30
2019-02-24T12:53:46.964Z,23.21
2019-02-24T12:56:16.097Z,23.27
2019-02-24T12:58:45.222Z,23.21
2019-02-24T13:01:14.711Z,23.34
2019-02-24T13:03:43.806Z,23.46
2019-02-24T13:06:13.112Z,23.50
2019-02-24T13:08:42.344Z,23.37
2019-02-24T13:11:11.858Z,23.73
2019-02-24T13:13:40.946Z,23.92
2019-02-24T13:16:10.085Z,24.01
2019-02-24T13:18:39.656Z,23.80
2019-02-24T13:21:08.799Z,24.11
2019-02-24T13:23:39.619Z,24.40
2019-02-24T13:26:08.980Z,24.46
2019-02-24T13:28:38.115Z,24.26
2019-02-24T13:31:07.251Z,24.10
2019-02-24T13:33:36.571Z,24.08
2019-02-24T13:36:06.000Z,24.09
2019-02-24T13:38:35.337Z,24.33
2019-02-24T13:41:04.451Z,24.24
2019-02-24T13:43:33.818Z,23.71
2019-02-24T13:46:03.318Z,23.78
2019-02-24T13:48:32.593Z,23.99
2019-02-24T13:51:02.012Z,23.70
2019-02-24T13:53:31.285Z,23.82
2019-02-24T13:56:00.545Z,24.30
2019-02-24T13:58:29.827Z,23.66
2019-02-24T14:00:59.083Z,23.83
2019-02-24T14:03:28.202Z,23.85
2019-02-24T14:05:57.577Z,23.58
2019-02-24T14:08:27.765Z,23.57
2019-02-24T14:10:57.130Z,23.33
2019-02-24T14:13:26.282Z,23.31
2019-02-24T14:15:57.220Z,23.03
2019-02-24T14:18:26.351Z,23.37
2019-02-24T14:20:55.748Z,23.34
2019-02-24T14:23:25.523Z,22.83
2019-02-24T14:25:55.148Z,22.91
2019-02-24T14:28:24.597Z,23.11
2019-02-24T14:30:53.799Z,23.28
2019-02-24T14:33:23.495Z,23.35
2019-02-24T14:35:52.817Z,23.57
2019-02-24T14:38:22.108Z,23.07
2019-02-24T14:40:51.314Z,22.81
2019-02-24T14:43:20.490Z,22.72
2019-02-24T14:45:49.942Z,22.50
2019-02-24T14:48:19.199Z,22.46
2019-02-24T14:50:48.398Z,22.43
2019-02-24T14:53:17.817Z,22.44
2019-02-24T14:55:47.384Z,21.95
2019-02-24T14:58:16.694Z,21.53
2019-02-24T15:00:45.791Z,22.28
2019-02-24T15:03:15.284Z,22.03
2019-02-24T15:05:44.420Z,22.22
2019-02-24T15:08:13.714Z,22.04
2019-02-24T15:10:42.971Z,22.22
2019-02-24T15:13:12.267Z,21.90
2019-02-24T15:15:43.366Z,22.26
2019-02-24T15:18:12.457Z,22.13
2019-02-24T15:20:41.686Z,22.10
2019-02-24T15:23:11.088Z,21.99
2019-02-24T15:25:40.577Z,22.32
2019-02-24T15:28:09.632Z,22.09
2019-02-24T15:30:38.847Z,21.64
2019-02-24T15:33:07.936Z,21.81
2019-02-24T15:35:37.316Z,21.81
2019-02-24T15:38:06.702Z,21.56
2019-02-24T15:40:36.097Z,21.68
2019-02-24T15:43:05.458Z,21.77
2019-02-24T15:45:34.976Z,21.80
2019-02-24T15:48:04.254Z,22.04
2019-02-24T15:50:33.477Z,22.13
2019-02-24T15:53:02.603Z,22.08
2019-02-24T15:55:31.752Z,21.84
2019-02-24T15:58:00.978Z,22.00
2019-02-24T16:00:30.220Z,22.03
2019-02-24T16:03:01.793Z,22.38
2019-02-24T16:05:35.121Z,22.38
2019-02-24T16:08:06.154Z,22.33
2019-02-24T16:10:35.838Z,22.18
2019-02-24T16:13:05.218Z,22.41
2019-02-24T16:15:34.372Z,22.66
2019-02-24T16:18:03.602Z,22.35
2019-02-24T16:20:32.742Z,22.79
2019-02-24T16:23:02.165Z,23.22
2019-02-24T16:25:31.534Z,22.92
2019-02-24T16:28:00.772Z,22.93
2019-02-24T16:30:29.921Z,22.96
2019-02-24T16:32:59.004Z,23.44
2019-02-24T16:35:28.117Z,23.56
2019-02-24T16:37:57.744Z,23.62
2019-02-24T16:40:26.852Z,23.91
2019-02-24T16:42:56.042Z,24.30
2019-02-24T16:45:25.457Z,24.43
2019-02-24T16:47:54.907Z,24.59
2019-02-24T16:50:24.355Z,24.29
2019-02-24T16:52:53.548Z,24.12
2019-02-24T16:55:22.831Z,23.94
2019-02-24T16:57:52.089Z,23.92
2019-02-24T17:00:21.543Z,23.88
2019-02-24T17:02:50.820Z,23.94
2019-02-24T17:05:19.881Z,24.12
2019-02-24T17:07:49.354Z,24.32
2019-02-24T17:10:19.258Z,24.56
2019-02-24T17:12:48.857Z,24.87
2019-02-24T17:15:18.077Z,24.95
2019-02-24T17:17:47.281Z,25.22
2019-02-24T17:20:17.383Z,25.57
2019-02-24T17:22:46.597Z,25.88
2019-02-24T17:25:15.836Z,26.11
2019-02-24T17:27:45.167Z,26.54
2019-02-24T17:30:14.862Z,26.87
2019-02-24T17:32:44.207Z,27.16
2019-02-24T17:35:14.089Z,27.64
2019-02-24T17:37:43.529Z,28.14
2019-02-24T17:40:13.597Z,28.25
2019-02-24T17:42:42.903Z,28.67
2019-02-24T17:45:12.780Z,28.62
2019-02-24T17:47:42.172Z,28.53
2019-02-24T17:50:12.391Z,29.04
2019-02-24T17:52:41.644Z,32.20
2019-02-24T17:55:12.183Z,33.25
2019-02-24T17:57:41.288Z,30.68
2019-02-24T18:00:20.732Z,30.41
2019-02-24T18:02:50.263Z,30.46
2019-02-24T18:05:19.590Z,30.68
2019-02-24T18:07:48.738Z,31.22
2019-02-24T18:10:18.166Z,31.21
2019-02-24T18:12:47.293Z,31.28
2019-02-24T18:15:16.747Z,31.28
2019-02-24T18:17:46.141Z,31.52
2019-02-24T18:20:15.336Z,31.73
2019-02-24T18:22:44.891Z,32.15
2019-02-24T18:25:14.237Z,32.75
2019-02-24T18:27:43.973Z,32.99
2019-02-24T18:30:18.787Z,33.46
2019-02-24T18:32:47.930Z,33.98
2019-02-24T18:35:17.020Z,34.12
2019-02-24T18:37:46.395Z,34.43
2019-02-24T18:40:15.748Z,34.64
2019-02-24T18:42:45.127Z,35.06
2019-02-24T18:45:14.399Z,35.50
2019-02-24T18:47:43.789Z,35.69
2019-02-24T18:50:13.005Z,35.75
2019-02-24T18:52:42.058Z,35.71
2019-02-24T18:55:11.918Z,35.74
2019-02-24T18:57:41.165Z,35.59
2019-02-24T19:00:12.627Z,35.77
2019-02-24T19:02:41.686Z,35.81
2019-02-24T19:05:11.051Z,35.35
2019-02-24T19:07:42.026Z,35.39
2019-02-24T19:10:12.892Z,35.69
2019-02-24T19:12:42.132Z,35.84
2019-02-24T19:15:13.434Z,35.80
2019-02-24T19:17:42.604Z,35.91
2019-02-24T19:20:12.692Z,36.03
2019-02-24T19:22:42.070Z,36.03
2019-02-24T19:25:11.491Z,36.21
2019-02-24T19:27:40.611Z,36.50
2019-02-24T19:30:11.844Z,36.13
2019-02-24T19:32:41.182Z,36.37
2019-02-24T19:35:11.082Z,37.30
2019-02-24T19:37:40.283Z,37.22
2019-02-24T19:40:11.432Z,37.42
2019-02-24T19:42:40.640Z,37.59
2019-02-24T19:45:11.550Z,38.30
2019-02-24T19:47:40.967Z,38.83
2019-02-24T19:50:12.165Z,39.53
2019-02-24T19:52:41.515Z,39.81
2019-02-24T19:55:11.123Z,40.44
2019-02-24T19:57:40.231Z,41.15
2019-02-24T20:00:18.005Z,41.70
2019-02-24T20:02:47.216Z,42.43
2019-02-24T20:05:16.740Z,42.60
2019-02-24T20:07:45.830Z,43.26
2019-02-24T20:10:15.892Z,43.87
2019-02-24T20:12:51.352Z,43.97
2019-02-24T20:15:20.545Z,44.22
2019-02-24T20:17:50.389Z,44.88
2019-02-24T20:20:20.032Z,45.21
2019-02-24T20:22:49.160Z,44.95
2019-02-24T20:25:18.454Z,45.16
2019-02-24T20:27:48.236Z,45.71
2019-02-24T20:30:20.333Z,46.01
2019-02-24T20:32:49.590Z,46.91
2019-02-24T20:35:18.727Z,46.63
2019-02-24T20:37:49.878Z,47.40
2019-02-24T20:40:19.084Z,47.11
2019-02-24T20:42:48.405Z,47.52
2019-02-24T20:45:18.488Z,47.62
2019-02-24T20:47:47.829Z,47.85
2019-02-24T20:50:18.140Z,49.45
2019-02-24T20:52:47.317Z,52.32
2019-02-24T20:55:16.437Z,52.33
2019-02-24T20:57:45.755Z,52.56
2019-02-24T21:00:21.662Z,53.10
2019-02-24T21:02:51.167Z,53.41
2019-02-24T21:05:20.482Z,53.56
2019-02-24T21:07:49.825Z,53.40
2019-02-24T21:10:19.345Z,53.22
2019-02-24T21:12:48.684Z,53.44
2019-02-24T21:15:18.174Z,53.68
2019-02-24T21:17:47.334Z,53.91
2019-02-24T21:20:18.688Z,53.50
2019-02-24T21:22:47.913Z,53.53
2019-02-24T21:25:17.101Z,54.31
2019-02-24T21:27:46.425Z,54.20
2019-02-24T21:30:17.157Z,54.49
2019-02-24T21:32:46.586Z,54.49
2019-02-24T21:35:17.606Z,55.44
2019-02-24T21:37:46.809Z,55.92
2019-02-24T21:40:16.200Z,56.26
2019-02-24T21:42:45.363Z,56.52
2019-02-24T21:45:16.524Z,56.99
2019-02-24T21:47:45.654Z,57.71
2019-02-24T21:50:15.931Z,58.11
2019-02-24T21:52:45.044Z,58.44
2019-02-24T21:55:14.480Z,58.90
2019-02-24T21:57:43.550Z,58.90
2019-02-24T22:00:25.505Z,58.54
2019-02-24T22:02:54.839Z,58.18
2019-02-24T22:05:23.957Z,59.07
2019-02-24T22:07:53.036Z,59.07
2019-02-24T22:10:22.268Z,60.11
2019-02-24T22:12:51.388Z,59.52
2019-02-24T22:15:20.515Z,59.52
2019-02-24T22:17:49.838Z,59.40
2019-02-24T22:20:19.102Z,57.86
2019-02-24T22:22:48.337Z,61.39
2019-02-24T22:25:17.688Z,57.73
2019-02-24T22:27:48.586Z,57.73
2019-02-24T22:30:18.080Z,58.68
2019-02-24T22:32:47.403Z,58.68
2019-02-24T22:35:16.487Z,58.43
2019-02-24T22:37:45.797Z,56.60
2019-02-24T22:40:16.696Z,56.60
2019-02-24T22:42:46.192Z,58.11
2019-02-24T22:45:16.994Z,58.65
2019-02-24T22:47:46.457Z,59.00
2019-02-24T22:50:15.895Z,59.40
2019-02-24T22:52:45.120Z,58.47
2019-02-24T22:55:14.594Z,58.47
2019-02-24T22:57:43.806Z,58.78
2019-02-24T23:00:55.296Z,57.01
2019-02-24T23:03:26.541Z,54.53
2019-02-24T23:05:55.704Z,53.28
2019-02-24T23:08:25.093Z,52.34
2019-02-24T23:10:54.356Z,52.34
2019-02-24T23:13:23.545Z,51.75
2019-02-24T23:15:52.788Z,53.45
2019-02-24T23:18:21.955Z,53.45
2019-02-24T23:20:51.068Z,53.02
2019-02-24T23:23:20.360Z,53.48
2019-02-24T23:25:49.503Z,51.90
2019-02-24T23:28:18.874Z,51.63
2019-02-24T23:30:48.070Z,51.63
2019-02-24T23:33:17.282Z,51.73
2019-02-24T23:35:46.523Z,49.70
2019-02-24T23:38:15.817Z,50.17
2019-02-24T23:40:44.886Z,50.17
2019-02-24T23:43:14.142Z,50.52
2019-02-24T23:45:43.392Z,55.60
2019-02-24T23:48:12.653Z,55.60
2019-02-24T23:50:41.776Z,57.67
2019-02-24T23:53:11.065Z,56.90
2019-02-24T23:55:40.321Z,56.77
2019-02-24T23:58:09.412Z,57.54
